sensor_id;sensor_type;location;lat;lon;timestamp;pressure;altitude;pressure_sealevel;temperature;humidity
37972;BME280;23794;48.234;8.344;2023-09-19T00:00:31;94112.78;;;13.80;88.76
37972;BME280;23794;48.234;8.344;2023-09-19T00:03:00;94118.34;;;13.77;89.95
37972;BME280;23794;48.234;8.344;2023-09-19T00:05:29;94109.09;;;13.87;88.83
37972;BME280;23794;48.234;8.344;2023-09-19T00:07:57;94106.59;;;13.93;88.04
37972;BME280;23794;48.234;8.344;2023-09-19T00:10:26;94103.38;;;13.98;88.21
37972;BME280;23794;48.234;8.344;2023-09-19T00:12:54;94114.03;;;13.96;88.87
37972;BME280;23794;48.234;8.344;2023-09-19T00:15:26;94103.78;;;13.96;89.29
37972;BME280;23794;48.234;8.344;2023-09-19T00:17:55;94110.84;;;13.97;88.81
37972;BME280;23794;48.234;8.344;2023-09-19T00:20:26;94106.91;;;13.98;89.24
37972;BME280;23794;48.234;8.344;2023-09-19T00:22:52;94118.63;;;14.02;88.44
37972;BME280;23794;48.234;8.344;2023-09-19T00:25:20;94108.97;;;13.94;88.22
37972;BME280;23794;48.234;8.344;2023-09-19T00:27:47;94116.78;;;13.96;89.38
37972;BME280;23794;48.234;8.344;2023-09-19T00:30:17;94121.47;;;13.99;89.41
37972;BME280;23794;48.234;8.344;2023-09-19T00:32:48;94112.31;;;14.02;89.49
37972;BME280;23794;48.234;8.344;2023-09-19T00:35:15;94115.94;;;13.99;89.27
37972;BME280;23794;48.234;8.344;2023-09-19T00:37:42;94118.19;;;14.04;89.07
37972;BME280;23794;48.234;8.344;2023-09-19T00:40:10;94107.94;;;14.04;88.88
37972;BME280;23794;48.234;8.344;2023-09-19T00:42:43;94106.31;;;14.07;88.28
37972;BME280;23794;48.234;8.344;2023-09-19T00:45:12;94121.72;;;14.04;89.57
37972;BME280;23794;48.234;8.344;2023-09-19T00:47:41;94116.91;;;14.09;88.61
37972;BME280;23794;48.234;8.344;2023-09-19T00:50:09;94123.91;;;14.13;89.67
37972;BME280;23794;48.234;8.344;2023-09-19T00:52:38;94122.06;;;14.07;89.13
37972;BME280;23794;48.234;8.344;2023-09-19T00:55:07;94119.16;;;14.14;88.30
37972;BME280;23794;48.234;8.344;2023-09-19T00:57:34;94113.56;;;14.17;88.17
37972;BME280;23794;48.234;8.344;2023-09-19T01:00:03;94120.63;;;14.18;88.65
37972;BME280;23794;48.234;8.344;2023-09-19T01:02:33;94120.63;;;14.18;88.30
37972;BME280;23794;48.234;8.344;2023-09-19T01:05:00;94126.91;;;14.19;88.34
37972;BME280;23794;48.234;8.344;2023-09-19T01:07:31;94124.16;;;14.19;88.27
37972;BME280;23794;48.234;8.344;2023-09-19T01:10:02;94115.13;;;14.18;87.07
37972;BME280;23794;48.234;8.344;2023-09-19T01:18:20;94109.22;;;14.00;87.45
37972;BME280;23794;48.234;8.344;2023-09-19T01:32:01;94142.00;;;13.94;88.44
37972;BME280;23794;48.234;8.344;2023-09-19T01:34:46;94139.56;;;13.96;88.09
37972;BME280;23794;48.234;8.344;2023-09-19T01:37:18;94149.41;;;13.97;88.31
37972;BME280;23794;48.234;8.344;2023-09-19T01:39:49;94151.31;;;14.00;88.33
37972;BME280;23794;48.234;8.344;2023-09-19T01:42:37;94136.69;;;14.03;87.97
37972;BME280;23794;48.234;8.344;2023-09-19T01:45:13;94145.38;;;14.02;88.26
37972;BME280;23794;48.234;8.344;2023-09-19T01:47:49;94145.09;;;13.96;88.05
37972;BME280;23794;48.234;8.344;2023-09-19T01:50:38;94149.00;;;13.99;88.56
37972;BME280;23794;48.234;8.344;2023-09-19T01:56:23;94148.47;;;14.04;88.31
37972;BME280;23794;48.234;8.344;2023-09-19T01:58:54;94142.53;;;14.05;88.25
37972;BME280;23794;48.234;8.344;2023-09-19T02:01:24;94142.19;;;14.03;89.43
37972;BME280;23794;48.234;8.344;2023-09-19T02:03:51;94140.06;;;14.11;88.90
37972;BME280;23794;48.234;8.344;2023-09-19T02:06:20;94145.94;;;14.13;88.29
37972;BME280;23794;48.234;8.344;2023-09-19T02:08:48;94147.53;;;14.11;88.19
37972;BME280;23794;48.234;8.344;2023-09-19T02:11:15;94152.28;;;14.10;88.58
37972;BME280;23794;48.234;8.344;2023-09-19T02:13:42;94147.53;;;14.11;88.05
37972;BME280;23794;48.234;8.344;2023-09-19T02:16:11;94150.88;;;14.02;89.87
37972;BME280;23794;48.234;8.344;2023-09-19T02:18:39;94152.88;;;14.01;89.17
37972;BME280;23794;48.234;8.344;2023-09-19T02:21:06;94144.59;;;14.01;89.04
37972;BME280;23794;48.234;8.344;2023-09-19T02:23:39;94152.28;;;14.10;88.41
37972;BME280;23794;48.234;8.344;2023-09-19T02:26:06;94148.41;;;14.08;87.93
37972;BME280;23794;48.234;8.344;2023-09-19T02:28:34;94149.97;;;14.09;87.73
37972;BME280;23794;48.234;8.344;2023-09-19T02:31:02;94159.00;;;14.09;87.90
37972;BME280;23794;48.234;8.344;2023-09-19T02:33:31;94151.53;;;14.10;87.87
37972;BME280;23794;48.234;8.344;2023-09-19T02:36:02;94154.44;;;14.02;88.17
37972;BME280;23794;48.234;8.344;2023-09-19T02:38:30;94161.81;;;14.05;87.65
37972;BME280;23794;48.234;8.344;2023-09-19T02:40:57;94162.09;;;14.11;87.26
37972;BME280;23794;48.234;8.344;2023-09-19T02:43:24;94166.13;;;14.07;87.29
37972;BME280;23794;48.234;8.344;2023-09-19T02:45:51;94164.28;;;14.00;87.70
37972;BME280;23794;48.234;8.344;2023-09-19T02:48:21;94165.00;;;14.04;87.82
37972;BME280;23794;48.234;8.344;2023-09-19T02:50:51;94160.19;;;14.08;87.47
37972;BME280;23794;48.234;8.344;2023-09-19T02:53:18;94157.50;;;14.04;87.48
37972;BME280;23794;48.234;8.344;2023-09-19T02:55:49;94160.78;;;13.99;87.62
37972;BME280;23794;48.234;8.344;2023-09-19T02:58:16;94157.72;;;13.94;87.43
37972;BME280;23794;48.234;8.344;2023-09-19T03:00:46;94155.91;;;13.87;87.92
37972;BME280;23794;48.234;8.344;2023-09-19T03:03:17;94154.69;;;13.88;87.97
37972;BME280;23794;48.234;8.344;2023-09-19T03:05:44;94165.69;;;13.88;87.68
37972;BME280;23794;48.234;8.344;2023-09-19T03:08:16;94159.88;;;13.86;88.13
37972;BME280;23794;48.234;8.344;2023-09-19T03:10:46;94158.53;;;13.94;87.54
37972;BME280;23794;48.234;8.344;2023-09-19T03:13:14;94167.53;;;13.95;88.15
37972;BME280;23794;48.234;8.344;2023-09-19T03:15:42;94170.22;;;13.98;88.71
37972;BME280;23794;48.234;8.344;2023-09-19T03:18:24;94172.06;;;14.05;88.62
37972;BME280;23794;48.234;8.344;2023-09-19T03:20:54;94173.78;;;13.99;88.01
37972;BME280;23794;48.234;8.344;2023-09-19T03:23:28;94168.66;;;13.97;89.03
37972;BME280;23794;48.234;8.344;2023-09-19T03:25:55;94169.78;;;14.00;87.93
37972;BME280;23794;48.234;8.344;2023-09-19T03:28:23;94167.91;;;13.97;87.87
37972;BME280;23794;48.234;8.344;2023-09-19T03:31:01;94162.47;;;13.93;87.74
37972;BME280;23794;48.234;8.344;2023-09-19T03:33:30;94171.63;;;13.86;87.77
37972;BME280;23794;48.234;8.344;2023-09-19T03:36:02;94172.91;;;13.82;87.88
37972;BME280;23794;48.234;8.344;2023-09-19T03:38:32;94176.00;;;13.84;87.70
37972;BME280;23794;48.234;8.344;2023-09-19T03:41:01;94174.88;;;13.81;88.39
37972;BME280;23794;48.234;8.344;2023-09-19T03:43:28;94185.53;;;13.79;89.85
37972;BME280;23794;48.234;8.344;2023-09-19T03:45:55;94179.13;;;13.86;89.33
37972;BME280;23794;48.234;8.344;2023-09-19T03:48:23;94171.16;;;13.92;88.09
37972;BME280;23794;48.234;8.344;2023-09-19T03:50:51;94171.56;;;13.90;87.68
37972;BME280;23794;48.234;8.344;2023-09-19T03:53:19;94172.44;;;13.87;88.08
37972;BME280;23794;48.234;8.344;2023-09-19T03:55:46;94166.94;;;13.87;87.61
37972;BME280;23794;48.234;8.344;2023-09-19T03:58:13;94164.56;;;13.85;87.90
37972;BME280;23794;48.234;8.344;2023-09-19T04:00:40;94170.50;;;13.84;88.42
37972;BME280;23794;48.234;8.344;2023-09-19T04:03:07;94172.69;;;13.93;87.98
37972;BME280;23794;48.234;8.344;2023-09-19T04:05:34;94175.13;;;13.91;88.09
37972;BME280;23794;48.234;8.344;2023-09-19T04:08:01;94173.06;;;13.95;87.90
37972;BME280;23794;48.234;8.344;2023-09-19T04:10:28;94182.59;;;13.90;87.76
37972;BME280;23794;48.234;8.344;2023-09-19T04:12:55;94176.78;;;13.84;88.22
37972;BME280;23794;48.234;8.344;2023-09-19T04:15:23;94176.78;;;13.84;88.28
37972;BME280;23794;48.234;8.344;2023-09-19T04:17:53;94189.28;;;13.89;88.51
37972;BME280;23794;48.234;8.344;2023-09-19T04:20:20;94181.88;;;13.86;88.02
37972;BME280;23794;48.234;8.344;2023-09-19T04:22:49;94171.94;;;13.92;87.76
37972;BME280;23794;48.234;8.344;2023-09-19T04:25:16;94168.13;;;13.86;87.37
37972;BME280;23794;48.234;8.344;2023-09-19T04:27:45;94172.28;;;13.74;87.51
37972;BME280;23794;48.234;8.344;2023-09-19T04:30:13;94180.97;;;13.72;88.39
37972;BME280;23794;48.234;8.344;2023-09-19T04:32:41;94182.91;;;13.72;88.65
37972;BME280;23794;48.234;8.344;2023-09-19T04:35:09;94179.75;;;13.73;88.39
37972;BME280;23794;48.234;8.344;2023-09-19T04:37:40;94175.78;;;13.74;88.17
37972;BME280;23794;48.234;8.344;2023-09-19T04:40:09;94185.69;;;13.72;87.86
37972;BME280;23794;48.234;8.344;2023-09-19T04:42:59;94188.72;;;13.78;87.89
37972;BME280;23794;48.234;8.344;2023-09-19T04:45:27;94184.84;;;13.75;87.85
37972;BME280;23794;48.234;8.344;2023-09-19T04:47:55;94185.97;;;13.78;87.78
37972;BME280;23794;48.234;8.344;2023-09-19T04:50:23;94192.03;;;13.69;88.29
37972;BME280;23794;48.234;8.344;2023-09-19T04:52:52;94192.81;;;13.69;88.71
37972;BME280;23794;48.234;8.344;2023-09-19T04:55:20;94197.47;;;13.72;88.10
37972;BME280;23794;48.234;8.344;2023-09-19T04:57:49;94209.69;;;13.71;88.08
37972;BME280;23794;48.234;8.344;2023-09-19T05:00:18;94213.19;;;13.72;89.24
37972;BME280;23794;48.234;8.344;2023-09-19T05:02:46;94214.25;;;13.78;88.86
37972;BME280;23794;48.234;8.344;2023-09-19T05:05:16;94213.94;;;13.76;88.05
37972;BME280;23794;48.234;8.344;2023-09-19T05:07:46;94212.38;;;13.75;88.08
37972;BME280;23794;48.234;8.344;2023-09-19T05:10:14;94219.69;;;13.82;87.98
37972;BME280;23794;48.234;8.344;2023-09-19T05:12:41;94221.75;;;13.78;87.71
37972;BME280;23794;48.234;8.344;2023-09-19T05:15:08;94218.22;;;13.77;89.47
37972;BME280;23794;48.234;8.344;2023-09-19T05:17:35;94220.56;;;13.79;89.57
37972;BME280;23794;48.234;8.344;2023-09-19T05:20:03;94221.69;;;13.81;90.14
37972;BME280;23794;48.234;8.344;2023-09-19T05:22:38;94231.72;;;13.92;88.76
37972;BME280;23794;48.234;8.344;2023-09-19T05:25:07;94235.53;;;13.78;89.11
37972;BME280;23794;48.234;8.344;2023-09-19T05:27:34;94246.84;;;13.83;89.76
37972;BME280;23794;48.234;8.344;2023-09-19T05:30:01;94251.03;;;13.88;89.63
37972;BME280;23794;48.234;8.344;2023-09-19T05:32:30;94244.72;;;13.91;89.14
37972;BME280;23794;48.234;8.344;2023-09-19T05:34:57;94246.19;;;13.96;88.86
37972;BME280;23794;48.234;8.344;2023-09-19T05:37:24;94248.94;;;13.96;89.10
37972;BME280;23794;48.234;8.344;2023-09-19T05:39:52;94249.25;;;14.01;89.96
37972;BME280;23794;48.234;8.344;2023-09-19T05:42:20;94253.00;;;14.11;88.88
37972;BME280;23794;48.234;8.344;2023-09-19T05:44:47;94254.91;;;14.14;88.72
37972;BME280;23794;48.234;8.344;2023-09-19T05:47:14;94257.31;;;14.12;88.77
37972;BME280;23794;48.234;8.344;2023-09-19T05:49:45;94268.47;;;14.25;88.53
37972;BME280;23794;48.234;8.344;2023-09-19T05:52:12;94265.22;;;14.30;87.91
37972;BME280;23794;48.234;8.344;2023-09-19T05:54:38;94264.84;;;14.28;87.86
37972;BME280;23794;48.234;8.344;2023-09-19T05:57:06;94267.25;;;14.26;88.74
37972;BME280;23794;48.234;8.344;2023-09-19T05:59:33;94270.72;;;14.30;88.56
37972;BME280;23794;48.234;8.344;2023-09-19T06:02:00;94270.72;;;14.30;87.86
37972;BME280;23794;48.234;8.344;2023-09-19T06:04:28;94278.13;;;14.33;88.01
37972;BME280;23794;48.234;8.344;2023-09-19T06:06:57;94266.41;;;14.29;87.30
37972;BME280;23794;48.234;8.344;2023-09-19T06:09:24;94271.50;;;14.31;87.19
37972;BME280;23794;48.234;8.344;2023-09-19T06:11:51;94270.38;;;14.28;87.03
37972;BME280;23794;48.234;8.344;2023-09-19T06:14:18;94274.53;;;14.36;85.80
37972;BME280;23794;48.234;8.344;2023-09-19T06:16:45;94281.63;;;14.37;85.77
37972;BME280;23794;48.234;8.344;2023-09-19T06:19:13;94285.19;;;14.34;86.07
37972;BME280;23794;48.234;8.344;2023-09-19T06:21:40;94282.53;;;14.31;86.44
37972;BME280;23794;48.234;8.344;2023-09-19T06:24:08;94279.63;;;14.18;88.16
37972;BME280;23794;48.234;8.344;2023-09-19T06:26:34;94285.06;;;14.21;87.92
37972;BME280;23794;48.234;8.344;2023-09-19T06:29:01;94278.69;;;14.25;86.96
37972;BME280;23794;48.234;8.344;2023-09-19T06:31:33;94288.47;;;14.29;87.32
37972;BME280;23794;48.234;8.344;2023-09-19T06:34:00;94289.78;;;14.21;87.04
37972;BME280;23794;48.234;8.344;2023-09-19T06:36:27;94284.41;;;14.14;87.09
37972;BME280;23794;48.234;8.344;2023-09-19T06:38:55;94288.81;;;14.11;86.71
37972;BME280;23794;48.234;8.344;2023-09-19T06:41:21;94298.56;;;14.16;87.51
37972;BME280;23794;48.234;8.344;2023-09-19T06:44:19;94308.56;;;14.06;86.90
37972;BME280;23794;48.234;8.344;2023-09-19T06:47:16;94306.94;;;14.09;88.00
37972;BME280;23794;48.234;8.344;2023-09-19T06:49:44;94314.47;;;14.04;86.73
37972;BME280;23794;48.234;8.344;2023-09-19T06:52:11;94314.22;;;13.99;86.72
37972;BME280;23794;48.234;8.344;2023-09-19T06:54:38;94328.75;;;13.99;86.99
37972;BME280;23794;48.234;8.344;2023-09-19T06:57:06;94321.19;;;14.03;86.47
37972;BME280;23794;48.234;8.344;2023-09-19T06:59:36;94326.94;;;14.13;85.88
37972;BME280;23794;48.234;8.344;2023-09-19T07:02:03;94331.25;;;14.14;86.15
37972;BME280;23794;48.234;8.344;2023-09-19T07:04:32;94328.84;;;14.16;86.31
37972;BME280;23794;48.234;8.344;2023-09-19T07:06:59;94328.44;;;14.17;87.10
37972;BME280;23794;48.234;8.344;2023-09-19T07:09:26;94336.69;;;14.17;85.71
37972;BME280;23794;48.234;8.344;2023-09-19T07:11:54;94337.06;;;14.19;86.02
37972;BME280;23794;48.234;8.344;2023-09-19T07:14:23;94334.22;;;14.23;86.45
37972;BME280;23794;48.234;8.344;2023-09-19T07:16:51;94330.56;;;14.30;86.48
37972;BME280;23794;48.234;8.344;2023-09-19T07:19:18;94341.25;;;14.28;85.34
37972;BME280;23794;48.234;8.344;2023-09-19T07:21:47;94340.25;;;14.38;86.22
37972;BME280;23794;48.234;8.344;2023-09-19T07:24:14;94345.00;;;14.37;86.50
37972;BME280;23794;48.234;8.344;2023-09-19T07:26:41;94346.25;;;14.33;85.05
37972;BME280;23794;48.234;8.344;2023-09-19T07:29:08;94352.13;;;14.35;85.11
37972;BME280;23794;48.234;8.344;2023-09-19T07:31:35;94356.84;;;14.34;82.89
37972;BME280;23794;48.234;8.344;2023-09-19T07:34:02;94352.53;;;14.33;83.03
37972;BME280;23794;48.234;8.344;2023-09-19T07:36:31;94355.72;;;14.32;84.04
37972;BME280;23794;48.234;8.344;2023-09-19T07:38:59;94359.31;;;14.49;81.98
37972;BME280;23794;48.234;8.344;2023-09-19T07:41:46;94365.28;;;14.47;84.79
37972;BME280;23794;48.234;8.344;2023-09-19T07:44:13;94361.13;;;14.59;84.13
37972;BME280;23794;48.234;8.344;2023-09-19T07:46:39;94360.56;;;14.88;82.76
37972;BME280;23794;48.234;8.344;2023-09-19T07:49:06;94362.47;;;15.11;80.98
37972;BME280;23794;48.234;8.344;2023-09-19T07:51:34;94356.69;;;15.59;81.93
37972;BME280;23794;48.234;8.344;2023-09-19T07:54:01;94356.06;;;15.51;78.72
37972;BME280;23794;48.234;8.344;2023-09-19T07:56:28;94364.88;;;15.46;79.68
37972;BME280;23794;48.234;8.344;2023-09-19T07:58:55;94357.53;;;15.39;80.48
37972;BME280;23794;48.234;8.344;2023-09-19T08:01:24;94364.34;;;15.51;81.85
37972;BME280;23794;48.234;8.344;2023-09-19T08:03:51;94365.41;;;15.57;80.19
37972;BME280;23794;48.234;8.344;2023-09-19T08:06:18;94373.56;;;15.44;79.91
37972;BME280;23794;48.234;8.344;2023-09-19T08:08:46;94381.72;;;15.31;81.20
37972;BME280;23794;48.234;8.344;2023-09-19T08:11:14;94375.38;;;15.35;81.45
37972;BME280;23794;48.234;8.344;2023-09-19T08:13:47;94382.03;;;15.54;80.17
37972;BME280;23794;48.234;8.344;2023-09-19T08:16:16;94385.66;;;15.51;79.95
37972;BME280;23794;48.234;8.344;2023-09-19T08:18:48;94380.44;;;15.73;81.11
37972;BME280;23794;48.234;8.344;2023-09-19T08:21:15;94388.00;;;15.85;77.12
37972;BME280;23794;48.234;8.344;2023-09-19T08:23:43;94383.72;;;15.84;79.40
37972;BME280;23794;48.234;8.344;2023-09-19T08:26:11;94396.75;;;15.84;80.92
37972;BME280;23794;48.234;8.344;2023-09-19T08:28:38;94391.44;;;15.93;80.12
37972;BME280;23794;48.234;8.344;2023-09-19T08:31:07;94398.44;;;15.98;80.14
37972;BME280;23794;48.234;8.344;2023-09-19T08:33:36;94397.22;;;15.99;79.78
37972;BME280;23794;48.234;8.344;2023-09-19T08:36:05;94405.16;;;15.97;80.72
37972;BME280;23794;48.234;8.344;2023-09-19T08:38:34;94403.34;;;16.06;79.90
37972;BME280;23794;48.234;8.344;2023-09-19T08:41:06;94406.72;;;16.14;77.49
37972;BME280;23794;48.234;8.344;2023-09-19T08:43:34;94402.31;;;16.00;77.03
37972;BME280;23794;48.234;8.344;2023-09-19T08:46:11;94408.09;;;16.06;77.90
37972;BME280;23794;48.234;8.344;2023-09-19T08:49:03;94406.72;;;16.14;77.43
37972;BME280;23794;48.234;8.344;2023-09-19T08:51:41;94415.84;;;16.11;78.06
37972;BME280;23794;48.234;8.344;2023-09-19T08:54:22;94417.06;;;16.10;78.44
37972;BME280;23794;48.234;8.344;2023-09-19T08:56:54;94413.09;;;16.11;76.84
37972;BME280;23794;48.234;8.344;2023-09-19T08:59:25;94413.84;;;16.11;76.00
37972;BME280;23794;48.234;8.344;2023-09-19T09:01:54;94421.13;;;16.22;77.33
37972;BME280;23794;48.234;8.344;2023-09-19T09:04:23;94421.38;;;16.44;78.47
37972;BME280;23794;48.234;8.344;2023-09-19T09:06:53;94419.84;;;16.72;76.47
37972;BME280;23794;48.234;8.344;2023-09-19T09:09:21;94416.25;;;16.88;76.00
37972;BME280;23794;48.234;8.344;2023-09-19T09:11:48;94406.03;;;17.02;75.77
37972;BME280;23794;48.234;8.344;2023-09-19T09:14:20;94410.13;;;16.97;72.71
37972;BME280;23794;48.234;8.344;2023-09-19T09:16:48;94419.44;;;17.03;72.70
37972;BME280;23794;48.234;8.344;2023-09-19T09:19:19;94417.97;;;17.41;73.27
37972;BME280;23794;48.234;8.344;2023-09-19T09:21:52;94410.78;;;17.57;74.65
37972;BME280;23794;48.234;8.344;2023-09-19T09:24:30;94409.56;;;17.71;74.52
37972;BME280;23794;48.234;8.344;2023-09-19T09:27:07;94416.78;;;17.81;69.73
37972;BME280;23794;48.234;8.344;2023-09-19T09:29:45;94410.13;;;17.65;71.89
37972;BME280;23794;48.234;8.344;2023-09-19T09:34:57;94412.91;;;17.78;68.46
37972;BME280;23794;48.234;8.344;2023-09-19T09:37:28;94418.22;;;17.73;68.91
37972;BME280;23794;48.234;8.344;2023-09-19T09:40:00;94418.09;;;18.15;69.80
37972;BME280;23794;48.234;8.344;2023-09-19T09:42:45;94404.63;;;18.52;66.22
37972;BME280;23794;48.234;8.344;2023-09-19T09:45:20;94403.84;;;18.52;63.98
37972;BME280;23794;48.234;8.344;2023-09-19T09:48:02;94403.34;;;18.66;65.93
37972;BME280;23794;48.234;8.344;2023-09-19T09:50:48;94413.03;;;18.61;64.57
37972;BME280;23794;48.234;8.344;2023-09-19T09:53:24;94412.06;;;19.13;64.91
37972;BME280;23794;48.234;8.344;2023-09-19T09:58:28;94409.75;;;19.11;63.39
37972;BME280;23794;48.234;8.344;2023-09-19T10:00:59;94396.13;;;19.26;64.05
37972;BME280;23794;48.234;8.344;2023-09-19T10:03:38;94404.03;;;19.37;65.37
37972;BME280;23794;48.234;8.344;2023-09-19T10:06:16;94397.47;;;19.43;62.50
37972;BME280;23794;48.234;8.344;2023-09-19T10:09:07;94401.25;;;19.37;61.45
37972;BME280;23794;48.234;8.344;2023-09-19T10:11:43;94398.78;;;19.07;61.18
37972;BME280;23794;48.234;8.344;2023-09-19T10:14:20;94408.72;;;18.95;62.50
37972;BME280;23794;48.234;8.344;2023-09-19T10:16:53;94408.28;;;19.19;60.58
37972;BME280;23794;48.234;8.344;2023-09-19T10:19:23;94403.75;;;19.13;64.62
37972;BME280;23794;48.234;8.344;2023-09-19T10:21:58;94392.91;;;19.27;63.39
37972;BME280;23794;48.234;8.344;2023-09-19T10:24:26;94404.63;;;19.32;60.25
37972;BME280;23794;48.234;8.344;2023-09-19T10:26:55;94392.72;;;19.53;61.23
37972;BME280;23794;48.234;8.344;2023-09-19T10:29:23;94393.25;;;19.39;59.45
37972;BME280;23794;48.234;8.344;2023-09-19T10:31:52;94382.44;;;19.32;59.96
37972;BME280;23794;48.234;8.344;2023-09-19T10:34:20;94380.09;;;19.30;59.41
37972;BME280;23794;48.234;8.344;2023-09-19T10:36:50;94384.19;;;19.16;59.88
37972;BME280;23794;48.234;8.344;2023-09-19T10:39:17;94390.72;;;18.65;62.01
37972;BME280;23794;48.234;8.344;2023-09-19T10:41:51;94388.47;;;18.38;65.90
37972;BME280;23794;48.234;8.344;2023-09-19T10:44:24;94395.78;;;18.31;64.50
37972;BME280;23794;48.234;8.344;2023-09-19T10:46:56;94393.03;;;18.31;61.66
37972;BME280;23794;48.234;8.344;2023-09-19T10:49:24;94387.09;;;18.55;62.94
37972;BME280;23794;48.234;8.344;2023-09-19T10:51:54;94389.03;;;18.32;61.48
37972;BME280;23794;48.234;8.344;2023-09-19T10:54:29;94386.94;;;18.37;65.80
37972;BME280;23794;48.234;8.344;2023-09-19T10:56:58;94394.69;;;18.42;66.22
37972;BME280;23794;48.234;8.344;2023-09-19T10:59:26;94389.38;;;18.70;64.55
37972;BME280;23794;48.234;8.344;2023-09-19T11:02:17;94390.25;;;19.02;60.95
37972;BME280;23794;48.234;8.344;2023-09-19T11:04:45;94398.88;;;18.82;59.99
37972;BME280;23794;48.234;8.344;2023-09-19T11:07:15;94400.72;;;18.98;64.50
37972;BME280;23794;48.234;8.344;2023-09-19T11:10:02;94380.66;;;19.47;60.31
37972;BME280;23794;48.234;8.344;2023-09-19T11:15:08;94374.47;;;19.43;60.00
37972;BME280;23794;48.234;8.344;2023-09-19T11:17:42;94378.31;;;19.14;60.06
37972;BME280;23794;48.234;8.344;2023-09-19T11:20:29;94385.69;;;19.39;60.20
37972;BME280;23794;48.234;8.344;2023-09-19T11:25:43;94381.25;;;20.14;57.55
37972;BME280;23794;48.234;8.344;2023-09-19T11:30:52;94370.53;;;19.94;54.54
37972;BME280;23794;48.234;8.344;2023-09-19T11:33:33;94375.78;;;19.29;55.70
37972;BME280;23794;48.234;8.344;2023-09-19T11:36:10;94372.47;;;18.77;57.22
37972;BME280;23794;48.234;8.344;2023-09-19T11:46:57;94375.72;;;19.51;55.66
37972;BME280;23794;48.234;8.344;2023-09-19T11:49:33;94358.97;;;19.96;57.12
37972;BME280;23794;48.234;8.344;2023-09-19T11:52:01;94359.78;;;20.15;54.91
37972;BME280;23794;48.234;8.344;2023-09-19T11:54:32;94349.03;;;20.45;53.32
37972;BME280;23794;48.234;8.344;2023-09-19T11:57:00;94357.34;;;20.35;54.86
37972;BME280;23794;48.234;8.344;2023-09-19T11:59:29;94355.47;;;20.32;53.50
37972;BME280;23794;48.234;8.344;2023-09-19T12:02:07;94357.59;;;19.69;54.42
37972;BME280;23794;48.234;8.344;2023-09-19T12:04:38;94352.44;;;19.89;56.03
37972;BME280;23794;48.234;8.344;2023-09-19T12:07:08;94348.69;;;20.33;54.82
37972;BME280;23794;48.234;8.344;2023-09-19T12:09:43;94349.16;;;20.32;52.52
37972;BME280;23794;48.234;8.344;2023-09-19T12:12:47;94342.22;;;20.36;52.44
37972;BME280;23794;48.234;8.344;2023-09-19T12:15:45;94347.72;;;20.09;54.63
37972;BME280;23794;48.234;8.344;2023-09-19T12:18:32;94341.25;;;20.12;52.45
37972;BME280;23794;48.234;8.344;2023-09-19T12:21:02;94346.59;;;19.97;54.84
37972;BME280;23794;48.234;8.344;2023-09-19T12:23:31;94340.38;;;20.80;53.19
37972;BME280;23794;48.234;8.344;2023-09-19T12:26:02;94334.44;;;21.24;53.23
37972;BME280;23794;48.234;8.344;2023-09-19T12:28:41;94336.66;;;20.55;53.39
37972;BME280;23794;48.234;8.344;2023-09-19T12:31:08;94341.13;;;19.74;53.64
37972;BME280;23794;48.234;8.344;2023-09-19T12:33:36;94332.75;;;20.15;54.84
37972;BME280;23794;48.234;8.344;2023-09-19T12:36:22;94328.13;;;20.21;51.92
37972;BME280;23794;48.234;8.344;2023-09-19T12:38:56;94327.53;;;20.55;51.92
37972;BME280;23794;48.234;8.344;2023-09-19T12:41:25;94328.75;;;20.44;51.67
37972;BME280;23794;48.234;8.344;2023-09-19T12:43:53;94327.41;;;20.58;51.60
37972;BME280;23794;48.234;8.344;2023-09-19T12:46:21;94308.81;;;20.83;50.56
37972;BME280;23794;48.234;8.344;2023-09-19T12:49:15;94305.16;;;20.58;49.36
37972;BME280;23794;48.234;8.344;2023-09-19T12:51:45;94316.88;;;20.62;50.85
37972;BME280;23794;48.234;8.344;2023-09-19T12:54:12;94309.28;;;20.53;48.98
37972;BME280;23794;48.234;8.344;2023-09-19T12:56:44;94313.78;;;20.69;50.15
37972;BME280;23794;48.234;8.344;2023-09-19T12:59:13;94310.38;;;20.93;51.41
37972;BME280;23794;48.234;8.344;2023-09-19T13:01:41;94308.50;;;20.99;48.42
37972;BME280;23794;48.234;8.344;2023-09-19T13:06:47;94308.16;;;21.16;48.88
37972;BME280;23794;48.234;8.344;2023-09-19T13:09:17;94309.28;;;20.81;48.84
37972;BME280;23794;48.234;8.344;2023-09-19T13:11:44;94298.00;;;20.94;50.94
37972;BME280;23794;48.234;8.344;2023-09-19T13:14:16;94296.28;;;20.97;50.10
37972;BME280;23794;48.234;8.344;2023-09-19T13:17:05;94299.53;;;21.05;50.86
37972;BME280;23794;48.234;8.344;2023-09-19T13:19:45;94296.81;;;21.38;48.29
37972;BME280;23794;48.234;8.344;2023-09-19T13:22:42;94302.22;;;20.62;49.75
37972;BME280;23794;48.234;8.344;2023-09-19T13:25:16;94302.47;;;20.36;52.11
37972;BME280;23794;48.234;8.344;2023-09-19T13:27:56;94300.94;;;20.44;52.51
37972;BME280;23794;48.234;8.344;2023-09-19T13:30:26;94303.72;;;20.44;54.92
37972;BME280;23794;48.234;8.344;2023-09-19T13:33:04;94294.13;;;20.17;49.37
37972;BME280;23794;48.234;8.344;2023-09-19T13:35:40;94299.63;;;19.80;53.50
37972;BME280;23794;48.234;8.344;2023-09-19T13:38:07;94306.78;;;19.59;55.50
37972;BME280;23794;48.234;8.344;2023-09-19T13:40:39;94295.81;;;19.55;59.41
37972;BME280;23794;48.234;8.344;2023-09-19T13:43:09;94296.94;;;19.67;59.58
37972;BME280;23794;48.234;8.344;2023-09-19T13:45:38;94288.53;;;19.99;53.92
37972;BME280;23794;48.234;8.344;2023-09-19T13:48:05;94286.09;;;20.19;53.22
37972;BME280;23794;48.234;8.344;2023-09-19T13:50:32;94287.34;;;20.09;48.70
37972;BME280;23794;48.234;8.344;2023-09-19T13:52:59;94282.06;;;20.20;54.63
37972;BME280;23794;48.234;8.344;2023-09-19T13:55:27;94285.50;;;20.43;51.20
37972;BME280;23794;48.234;8.344;2023-09-19T13:57:54;94280.56;;;20.66;48.82
37972;BME280;23794;48.234;8.344;2023-09-19T14:00:22;94284.25;;;20.81;51.71
37972;BME280;23794;48.234;8.344;2023-09-19T14:02:49;94279.00;;;20.83;47.88